Flight Track Log - Related Links

Times and Time Zones

All times are in EDT time to prevent confusion due to time zone crossing. See the AWE1940 flight status page for this flight to view local times or setup timezone preferences in your user account.

Time Position Orientation Groundspeed Altitude Reporting Facility
EDT Latitude Longitude Course Direction KTS MPH feet Rate Location/Type
Fri 06:35:44 PM 29.9572 -95.3417 30° Northeast 198 228 900  Level Houston Center
Fri 06:36:33 PM 29.9656 -95.2947 78° East 220 253 2,000 1,553 Climbing Houston Center
Fri 06:37:09 PM 29.9953 -95.2794 24° Northeast 242 278 3,100 1,299 Climbing Houston Center
Fri 06:38:00 PM 30.2611 -95.1038 30° Northeast  Level FlightAware Approximate
Fri 06:38:10 PM 30.0625 -95.2425 25° Northeast 257 296 4,100  Level Houston Center
Fri 06:39:00 PM 30.3579 -95.0337 35° Northeast  Level FlightAware Approximate
Fri 06:39:12 PM 30.1311 -95.2042 26° Northeast 267 307 4,100  Level Houston Center
Fri 06:40:00 PM 30.4478 -94.9522 41° Northeast  Level FlightAware Approximate
Fri 06:40:14 PM 30.1967 -95.1589 31° Northeast 273 314 6,500  Level Houston Center
Fri 06:41:00 PM 30.5465 -94.8857 30° Northeast  Level FlightAware Approximate
Fri 06:41:16 PM 30.2744 -95.1011 33° Northeast 275 316 9,600  Level Houston Center
Fri 06:42:18 PM 30.3494 -95.0492 31° Northeast 304 350 10,500 968 Climbing Houston Center
Fri 06:43:20 PM 30.4347 -94.9847 33° Northeast 358 412 11,600 1,659 Climbing Houston Center
Fri 06:44:21 PM 30.5278 -94.9122 34° Northeast 391 450 13,900 2,098 Climbing Houston Center
Fri 06:45:23 PM 30.6222 -94.8403 33° Northeast 404 465 15,900 1,935 Climbing Houston Center
Fri 06:46:25 PM 30.7394 -94.7492 34° Northeast 421 484 17,900 1,645 Climbing Houston Center
Fri 06:47:27 PM 30.8408 -94.6714 33° Northeast 434 499 19,300 1,452 Climbing Houston Center
Fri 06:48:29 PM 30.9444 -94.5911 34° Northeast 448 516 20,900 1,306 Climbing Houston Center
Fri 06:49:31 PM 31.0500 -94.5100 33° Northeast 456 525 22,000 1,016 Climbing Houston Center
Fri 06:50:33 PM 31.1569 -94.4258 34° Northeast 466 536 23,000 878 Climbing Houston Center
Fri 06:51:34 PM 31.2889 -94.3244 33° Northeast 476 548 23,800 927 Climbing Houston Center
Fri 06:52:36 PM 31.4003 -94.2392 33° Northeast 481 554 24,900 1,306 Climbing Houston Center
Fri 06:53:38 PM 31.5108 -94.1519 34° Northeast 481 554 26,500 1,306 Climbing Houston Center
Fri 06:54:40 PM 31.6197 -94.0667 34° Northeast 474 545 27,600 1,161 Climbing Houston Center
Fri 06:55:42 PM 31.7278 -93.9822 34° Northeast 469 540 28,900 677 Climbing Houston Center
Fri 06:56:44 PM 31.8297 -93.8786 41° Northeast 470 541 29,000 49 Climbing Houston Center
Fri 06:57:45 PM 31.8928 -93.7464 61° Northeast 464 534 29,000  Level Houston Center
Fri 06:58:47 PM 31.9547 -93.6114 62° Northeast 467 537 29,000  Level Houston Center
Fri 06:59:49 PM 32.0303 -93.4497 61° Northeast 469 540 29,000  Level Houston Center
Fri 07:00:52 PM 32.0936 -93.3133 61° Northeast 472 543 29,000  Level Houston Center
Fri 07:03:09 PM 32.2344 -93.0100 61° Northeast 469 540 29,000  Level Fort Worth Center
Fri 07:04:09 PM 32.2964 -92.8719 62° Northeast 469 540 29,000  Level Fort Worth Center
Fri 07:05:09 PM 32.3603 -92.7333 61° Northeast 469 540 29,000  Level Fort Worth Center
Fri 07:06:09 PM 32.4256 -92.5872 62° Northeast 474 545 29,000  Level Fort Worth Center
Fri 07:08:07 PM 32.5461 -92.3164 62° Northeast 502 578 29,000  Level Memphis Center
Fri 07:09:07 PM 32.6086 -92.1772 62° Northeast 486 559 29,000  Level Memphis Center
Fri 07:10:07 PM 32.6733 -92.0381 61° Northeast 479 551 29,000  Level Memphis Center
Fri 07:11:07 PM 32.7378 -91.8861 63° Northeast 466 536 29,000  Level Memphis Center
Fri 07:12:07 PM 32.8022 -91.7414 62° Northeast 466 536 29,000  Level Memphis Center
Fri 07:13:07 PM 32.8642 -91.6014 62° Northeast 471 542 29,000  Level Memphis Center
Fri 07:14:07 PM 32.9258 -91.4636 62° Northeast 471 542 29,000  Level Memphis Center
Fri 07:15:07 PM 32.9897 -91.3208 62° Northeast 471 542 29,000  Level Memphis Center
Fri 07:16:07 PM 33.0472 -91.1800 64° Northeast 471 542 29,000  Level Memphis Center
Fri 07:17:07 PM 33.1086 -91.0392 62° Northeast 471 542 29,000  Level Memphis Center
Fri 07:18:07 PM 33.1719 -90.8958 62° Northeast 471 542 29,000  Level Memphis Center
Fri 07:19:07 PM 33.2328 -90.7547 63° Northeast 471 542 29,000  Level Memphis Center
Fri 07:20:07 PM 33.2939 -90.6133 63° Northeast 471 542 29,000  Level Memphis Center
Fri 07:21:07 PM 33.3544 -90.4717 63° Northeast 471 542 29,000  Level Memphis Center
Fri 07:22:07 PM 33.4150 -90.3322 62° Northeast 471 542 29,000  Level Memphis Center
Fri 07:23:07 PM 33.4756 -90.1928 62° Northeast 471 542 29,000  Level Memphis Center
Fri 07:24:07 PM 33.5317 -90.0556 64° Northeast 466 536 29,000  Level Memphis Center
Fri 07:25:07 PM 33.5897 -89.9208 63° Northeast 461 531 29,000  Level Memphis Center
Fri 07:26:07 PM 33.6456 -89.7858 64° Northeast 456 525 29,000  Level Memphis Center
Fri 07:27:07 PM 33.7031 -89.6481 63° Northeast 451 519 29,000  Level Memphis Center
Fri 07:28:07 PM 33.7608 -89.5153 62° Northeast 451 519 29,000  Level Memphis Center
Fri 07:29:07 PM 33.8161 -89.3797 64° Northeast 451 519 29,000  Level Memphis Center
Fri 07:30:07 PM 33.8650 -89.2489 66° East 451 519 29,000  Level Memphis Center
Fri 07:31:07 PM 33.9242 -89.1081 63° Northeast 462 532 29,000  Level Memphis Center
Fri 07:32:07 PM 33.9811 -88.9644 64° Northeast 467 537 29,000  Level Memphis Center
Fri 07:33:07 PM 34.0439 -88.8081 64° Northeast 467 537 29,000  Level Memphis Center
Fri 07:34:07 PM 34.1031 -88.6839 60° Northeast 467 537 29,000  Level Memphis Center
Fri 07:35:08 PM 34.1931 -88.5667 47° Northeast 473 544 29,000  Level Memphis Center
Fri 07:36:07 PM 34.2894 -88.4492 45° Northeast 473 544 29,000  Level Memphis Center
Fri 07:37:07 PM 34.3814 -88.3336 46° Northeast 473 544 29,000  Level Memphis Center
Fri 07:38:07 PM 34.4736 -88.2181 46° Northeast 478 550 29,000  Level Memphis Center
Fri 07:39:07 PM 34.5714 -88.0872 48° Northeast 477 549 29,000  Level Memphis Center
Fri 07:40:07 PM 34.6314 -87.9467 63° Northeast 465 535 29,000  Level Memphis Center
Fri 07:41:07 PM 34.6786 -87.8039 68° East 454 522 29,000  Level Memphis Center
Fri 07:42:07 PM 34.7253 -87.6533 69° East 466 536 29,000  Level Memphis Center
Fri 07:43:07 PM 34.7686 -87.5358 66° East 472 543 29,000  Level Memphis Center
Fri 07:45:28 PM 34.8900 -87.1611 68° East 478 550 29,000  Level Atlanta Center
Fri 07:46:28 PM 34.9394 -87.0133 68° East 473 544 29,000  Level Atlanta Center
Fri 07:47:28 PM 34.9911 -86.8606 68° East 473 544 29,000  Level Atlanta Center
Fri 07:48:28 PM 35.0383 -86.7075 69° East 473 544 29,000  Level Atlanta Center
Fri 07:49:28 PM 35.0875 -86.5517 69° East 473 544 29,000  Level Atlanta Center
Fri 07:50:28 PM 35.1386 -86.3958 68° East 479 551 29,000  Level Atlanta Center
Fri 07:51:28 PM 35.1856 -86.2369 70° East 485 558 29,000  Level Atlanta Center
Fri 07:52:28 PM 35.2339 -86.0806 69° East 485 558 29,000  Level Atlanta Center
Fri 07:53:28 PM 35.2867 -85.9192 68° East 491 565 29,000  Level Atlanta Center
Fri 07:54:28 PM 35.3325 -85.7800 68° East 491 565 29,000  Level Atlanta Center
Fri 07:55:28 PM 35.3806 -85.6231 69° East 491 565 29,000  Level Atlanta Center
Fri 07:56:28 PM 35.4306 -85.4661 69° East 491 565 29,000  Level Atlanta Center
Fri 07:57:28 PM 35.4803 -85.3064 69° East 491 565 29,000  Level Atlanta Center
Fri 07:58:28 PM 35.5275 -85.1461 70° East 491 565 29,000  Level Atlanta Center
Fri 07:59:28 PM 35.5750 -84.9861 70° East 491 565 29,000  Level Atlanta Center
Fri 08:00:28 PM 35.6239 -84.8256 69° East 491 565 29,000  Level Atlanta Center
Fri 08:01:28 PM 35.6708 -84.6625 70° East 491 565 29,000  Level Atlanta Center
Fri 08:02:28 PM 35.7194 -84.5069 69° East 491 565 29,000  Level Atlanta Center
Fri 08:03:28 PM 35.7742 -84.3281 69° East 491 565 29,000  Level Atlanta Center
Fri 08:04:28 PM 35.8225 -84.1667 70° East 491 565 29,000  Level Atlanta Center
Fri 08:05:28 PM 35.8497 -84.0003 79° East 491 565 29,000  Level Atlanta Center
Fri 08:06:28 PM 35.8642 -83.8311 84° East 491 565 29,000  Level Atlanta Center
Fri 08:07:28 PM 35.8803 -83.6619 83° East 491 565 29,000  Level Atlanta Center
Fri 08:08:28 PM 35.8922 -83.4903 85° East 491 565 29,000  Level Atlanta Center
Fri 08:09:28 PM 35.8892 -83.3186 91° East 496 571 29,000 -200 Level Atlanta Center
Fri 08:10:28 PM 35.8881 -83.1519 90° East 496 571 28,600 -700 Descending Atlanta Center
Fri 08:11:28 PM 35.8828 -82.9828 92° East 496 571 27,600 -950 Descending Atlanta Center
Fri 08:12:28 PM 35.8789 -82.8111 92° East 496 571 26,700 -950 Descending Atlanta Center
Fri 08:13:28 PM 35.8772 -82.6419 91° East 496 571 25,700 -1,000 Descending Atlanta Center
Fri 08:14:28 PM 35.8731 -82.4703 92° East 496 571 24,700 -1,500 Descending Atlanta Center
Fri 08:15:28 PM 35.8728 -82.3039 90° East 491 565 22,700 -2,400 Descending Atlanta Center
Fri 08:16:28 PM 35.8458 -82.1661 104° East 478 550 19,900 -2,650 Descending Atlanta Center
Fri 08:17:28 PM 35.7894 -82.0317 117° Southeast 449 517 17,400 -3,063 Descending Atlanta Center
Fri 08:18:04 PM 35.7503 -81.9356 117° Southeast 434 499 15,000 -2,750 Descending Atlanta Center
Fri 08:19:28 PM 35.6828 -81.7711 117° Southeast 420 483 11,900 -1,708 Descending Atlanta Center
Fri 08:20:28 PM 35.6367 -81.6547 116° Southeast 393 452 10,900 -415 Descending Atlanta Center
Fri 08:21:38 PM 35.5758 -81.5364 122° Southeast 300 345 11,000 -350 Climbing Atlanta Center
Fri 08:22:28 PM 35.5472 -81.4556 113° Southeast 309 356 10,200 -1,309 Descending Atlanta Center
Fri 08:23:28 PM 35.5158 -81.3572 111° Southeast 304 350 8,600 -1,450 Descending Atlanta Center
Fri 08:24:28 PM 35.4844 -81.2639 112° Southeast 299 344 7,300 -1,400 Descending Atlanta Center
Fri 08:24:28 PM 35.4844 -81.2639 112° Southeast 296 341 7,200 -1,700 Descending Atlanta Center
Fri 08:25:28 PM 35.4533 -81.1731 113° Southeast 293 337 5,600 -1,500 Descending Atlanta Center
Fri 08:26:28 PM 35.4239 -81.0825 112° Southeast 287 330 4,200 -850 Descending Atlanta Center
Fri 08:27:28 PM 35.3928 -80.9969 114° Southeast 281 323 3,900 -462 Descending Atlanta Center
Fri 08:28:38 PM 35.3378 -80.9761 163° South 160 184 3,200 -908 Descending Atlanta Center
Fri 08:29:27 PM 35.3025 -80.9772 181° South 144 166 2,100 -983 Descending Atlanta Center
Fri 08:30:34 PM 35.2586 -80.9739 176° South 141 162 1,300 -716 Descending Atlanta Center

Login

Don't have an account? Register now (free) for customized features, flight alerts, and more!